Pagrindinis puslapis
METAR-TAF:

METAR-TAF

Oro uostai :

Senendedžas, Iranas

platuma: 35-20N, ilguma: 047-00E, Aukštis: 1373 m

Dabartinis oras

Ataskaita buvo paskelbta 1 valandą ir 1 minutes, ne 09:00 UTC
Vėjas 2 kt nuo kintamojo kryptimis
Temperatūra 25°C
Drėgmė 18%
Slėgis 1016 hPa
Matomumas 10 km arba daugiau
Mažai debesys ne aukštis 4000 ft, aukštai iškilę kamuoliniai debesys.

METAR: OICS 200900Z VRB02KT 9999 FEW040TCU 25/M01 Q1016 A3001 NOSIG

Laikas: 14:31 (10:01 UTC)


TAF: trūkstamas

Orai ataskaitas ir orų prognozės (METAR, TAF).

turimą stotys yra geltonos ir raudonos taškus žemėlapyje.

Perkelti pele per norėdami pamatyti stoties vardą.

Tada spustelėkite, norėdami matyti oro stebėjimo ir prognozės.

Norėdami pakeisti žemėlapį: spustelėkite ant žalios mygtukų su juodo kryžiaus žemyn,; žalią mygtuką su brūkšneliu, jei norite nutolinti; arba žalių rodyklių gretimoms žemėlapius.


METAR-TAF: